sensor_id;sensor_type;location;lat;lon;timestamp;P1;durP1;ratioP1;P2;durP2;ratioP2
40781;SDS011;26493;51.938;7.626;2023-08-06T00:00:58;39.35;;;21.88;;
40781;SDS011;26493;51.938;7.626;2023-08-06T00:03:24;27.48;;;20.73;;
40781;SDS011;26493;51.938;7.626;2023-08-06T00:05:50;29.65;;;21.15;;
40781;SDS011;26493;51.938;7.626;2023-08-06T00:08:16;28.73;;;21.67;;
40781;SDS011;26493;51.938;7.626;2023-08-06T00:10:42;27.20;;;19.67;;
40781;SDS011;26493;51.938;7.626;2023-08-06T00:13:08;27.35;;;20.90;;
40781;SDS011;26493;51.938;7.626;2023-08-06T00:15:34;30.25;;;21.30;;
40781;SDS011;26493;51.938;7.626;2023-08-06T00:18:00;27.02;;;20.27;;
40781;SDS011;26493;51.938;7.626;2023-08-06T00:20:26;27.15;;;20.33;;
40781;SDS011;26493;51.938;7.626;2023-08-06T00:22:52;30.63;;;21.02;;
40781;SDS011;26493;51.938;7.626;2023-08-06T00:25:18;27.02;;;20.83;;
40781;SDS011;26493;51.938;7.626;2023-08-06T00:27:44;27.80;;;20.55;;
40781;SDS011;26493;51.938;7.626;2023-08-06T00:30:10;27.15;;;20.88;;
40781;SDS011;26493;51.938;7.626;2023-08-06T00:32:36;27.40;;;20.50;;
40781;SDS011;26493;51.938;7.626;2023-08-06T00:35:02;25.63;;;20.95;;
40781;SDS011;26493;51.938;7.626;2023-08-06T00:37:29;24.77;;;18.40;;
40781;SDS011;26493;51.938;7.626;2023-08-06T00:39:55;27.92;;;21.00;;
40781;SDS011;26493;51.938;7.626;2023-08-06T00:42:21;25.95;;;19.70;;
40781;SDS011;26493;51.938;7.626;2023-08-06T00:44:47;24.27;;;18.80;;
40781;SDS011;26493;51.938;7.626;2023-08-06T00:47:13;24.60;;;18.98;;
40781;SDS011;26493;51.938;7.626;2023-08-06T00:49:39;27.92;;;21.15;;
40781;SDS011;26493;51.938;7.626;2023-08-06T00:52:05;28.58;;;19.60;;
40781;SDS011;26493;51.938;7.626;2023-08-06T00:54:34;26.77;;;20.05;;
40781;SDS011;26493;51.938;7.626;2023-08-06T00:57:01;27.85;;;20.98;;
40781;SDS011;26493;51.938;7.626;2023-08-06T00:59:27;27.05;;;20.05;;
40781;SDS011;26493;51.938;7.626;2023-08-06T01:01:53;27.05;;;20.88;;
40781;SDS011;26493;51.938;7.626;2023-08-06T01:04:19;25.98;;;21.17;;
40781;SDS011;26493;51.938;7.626;2023-08-06T01:09:24;25.42;;;20.25;;
40781;SDS011;26493;51.938;7.626;2023-08-06T01:12:04;27.55;;;20.17;;
40781;SDS011;26493;51.938;7.626;2023-08-06T01:14:45;26.75;;;19.90;;
40781;SDS011;26493;51.938;7.626;2023-08-06T01:17:13;25.55;;;19.98;;
40781;SDS011;26493;51.938;7.626;2023-08-06T01:19:39;26.67;;;20.98;;
40781;SDS011;26493;51.938;7.626;2023-08-06T01:22:05;29.08;;;21.38;;
40781;SDS011;26493;51.938;7.626;2023-08-06T01:24:31;25.73;;;19.60;;
40781;SDS011;26493;51.938;7.626;2023-08-06T01:27:00;24.88;;;20.48;;
40781;SDS011;26493;51.938;7.626;2023-08-06T01:29:49;25.25;;;19.95;;
40781;SDS011;26493;51.938;7.626;2023-08-06T01:34:44;23.88;;;18.85;;
40781;SDS011;26493;51.938;7.626;2023-08-06T01:37:10;27.10;;;19.02;;
40781;SDS011;26493;51.938;7.626;2023-08-06T01:39:36;28.27;;;19.63;;
40781;SDS011;26493;51.938;7.626;2023-08-06T01:42:03;25.33;;;18.98;;
40781;SDS011;26493;51.938;7.626;2023-08-06T01:44:29;28.10;;;19.05;;
40781;SDS011;26493;51.938;7.626;2023-08-06T01:46:55;25.13;;;18.73;;
40781;SDS011;26493;51.938;7.626;2023-08-06T01:49:21;23.88;;;18.30;;
40781;SDS011;26493;51.938;7.626;2023-08-06T01:51:47;24.30;;;18.42;;
40781;SDS011;26493;51.938;7.626;2023-08-06T01:54:13;25.70;;;19.63;;
40781;SDS011;26493;51.938;7.626;2023-08-06T01:56:39;26.13;;;18.73;;
40781;SDS011;26493;51.938;7.626;2023-08-06T01:59:05;29.02;;;19.30;;
40781;SDS011;26493;51.938;7.626;2023-08-06T02:01:31;25.42;;;19.52;;
40781;SDS011;26493;51.938;7.626;2023-08-06T02:03:57;27.38;;;19.67;;
40781;SDS011;26493;51.938;7.626;2023-08-06T02:06:23;24.98;;;18.40;;
40781;SDS011;26493;51.938;7.626;2023-08-06T02:08:49;24.92;;;18.88;;
40781;SDS011;26493;51.938;7.626;2023-08-06T02:11:14;26.60;;;19.30;;
40781;SDS011;26493;51.938;7.626;2023-08-06T02:13:40;26.13;;;18.70;;
40781;SDS011;26493;51.938;7.626;2023-08-06T02:16:07;25.17;;;19.15;;
40781;SDS011;26493;51.938;7.626;2023-08-06T02:18:36;27.63;;;18.25;;
40781;SDS011;26493;51.938;7.626;2023-08-06T02:21:02;28.38;;;18.92;;
40781;SDS011;26493;51.938;7.626;2023-08-06T02:23:28;22.52;;;17.58;;
40781;SDS011;26493;51.938;7.626;2023-08-06T02:26:00;25.80;;;18.00;;
40781;SDS011;26493;51.938;7.626;2023-08-06T02:28:26;23.77;;;17.58;;
40781;SDS011;26493;51.938;7.626;2023-08-06T02:30:52;25.20;;;17.95;;
40781;SDS011;26493;51.938;7.626;2023-08-06T02:33:18;25.85;;;18.63;;
40781;SDS011;26493;51.938;7.626;2023-08-06T02:35:44;27.55;;;18.60;;
40781;SDS011;26493;51.938;7.626;2023-08-06T02:38:10;24.88;;;17.90;;
40781;SDS011;26493;51.938;7.626;2023-08-06T02:40:36;24.63;;;17.48;;
40781;SDS011;26493;51.938;7.626;2023-08-06T02:43:02;25.15;;;18.73;;
40781;SDS011;26493;51.938;7.626;2023-08-06T02:45:29;24.02;;;17.45;;
40781;SDS011;26493;51.938;7.626;2023-08-06T02:47:55;24.42;;;17.73;;
40781;SDS011;26493;51.938;7.626;2023-08-06T02:50:20;26.45;;;18.52;;
40781;SDS011;26493;51.938;7.626;2023-08-06T02:52:46;25.23;;;17.20;;
40781;SDS011;26493;51.938;7.626;2023-08-06T02:55:12;24.75;;;17.23;;
40781;SDS011;26493;51.938;7.626;2023-08-06T02:57:38;27.20;;;18.25;;
40781;SDS011;26493;51.938;7.626;2023-08-06T03:00:05;24.60;;;16.58;;
40781;SDS011;26493;51.938;7.626;2023-08-06T03:02:31;24.73;;;16.35;;
40781;SDS011;26493;51.938;7.626;2023-08-06T03:04:57;23.33;;;16.60;;
40781;SDS011;26493;51.938;7.626;2023-08-06T03:07:23;22.88;;;16.77;;
40781;SDS011;26493;51.938;7.626;2023-08-06T03:09:49;25.63;;;17.60;;
40781;SDS011;26493;51.938;7.626;2023-08-06T03:12:15;24.88;;;17.75;;
40781;SDS011;26493;51.938;7.626;2023-08-06T03:14:41;23.85;;;16.90;;
40781;SDS011;26493;51.938;7.626;2023-08-06T03:17:07;22.95;;;17.17;;
40781;SDS011;26493;51.938;7.626;2023-08-06T03:19:33;24.65;;;17.77;;
40781;SDS011;26493;51.938;7.626;2023-08-06T03:21:59;23.05;;;16.83;;
40781;SDS011;26493;51.938;7.626;2023-08-06T03:24:25;25.02;;;17.67;;
40781;SDS011;26493;51.938;7.626;2023-08-06T03:26:51;22.65;;;17.75;;
40781;SDS011;26493;51.938;7.626;2023-08-06T03:29:17;22.77;;;17.70;;
40781;SDS011;26493;51.938;7.626;2023-08-06T03:31:43;22.02;;;16.85;;
40781;SDS011;26493;51.938;7.626;2023-08-06T03:34:09;23.92;;;17.17;;
40781;SDS011;26493;51.938;7.626;2023-08-06T03:36:35;24.42;;;17.08;;
40781;SDS011;26493;51.938;7.626;2023-08-06T03:39:01;22.52;;;16.73;;
40781;SDS011;26493;51.938;7.626;2023-08-06T03:41:27;23.58;;;17.02;;
40781;SDS011;26493;51.938;7.626;2023-08-06T03:43:53;24.25;;;17.42;;
40781;SDS011;26493;51.938;7.626;2023-08-06T03:46:19;23.45;;;17.10;;
40781;SDS011;26493;51.938;7.626;2023-08-06T03:48:45;22.33;;;16.48;;
40781;SDS011;26493;51.938;7.626;2023-08-06T03:51:11;23.65;;;17.10;;
40781;SDS011;26493;51.938;7.626;2023-08-06T03:53:37;23.63;;;17.45;;
40781;SDS011;26493;51.938;7.626;2023-08-06T03:56:03;22.98;;;16.42;;
40781;SDS011;26493;51.938;7.626;2023-08-06T03:58:29;23.27;;;16.92;;
40781;SDS011;26493;51.938;7.626;2023-08-06T04:00:59;22.38;;;16.20;;
40781;SDS011;26493;51.938;7.626;2023-08-06T04:03:25;23.48;;;17.52;;
40781;SDS011;26493;51.938;7.626;2023-08-06T04:05:52;22.88;;;17.30;;
40781;SDS011;26493;51.938;7.626;2023-08-06T04:08:18;23.95;;;17.20;;
40781;SDS011;26493;51.938;7.626;2023-08-06T04:10:44;26.98;;;17.73;;
40781;SDS011;26493;51.938;7.626;2023-08-06T04:13:10;25.17;;;17.35;;
40781;SDS011;26493;51.938;7.626;2023-08-06T04:15:36;26.70;;;17.90;;
40781;SDS011;26493;51.938;7.626;2023-08-06T04:18:02;20.08;;;15.93;;
40781;SDS011;26493;51.938;7.626;2023-08-06T04:20:28;24.63;;;16.13;;
40781;SDS011;26493;51.938;7.626;2023-08-06T04:22:54;22.08;;;16.42;;
40781;SDS011;26493;51.938;7.626;2023-08-06T04:25:20;21.95;;;16.63;;
40781;SDS011;26493;51.938;7.626;2023-08-06T04:27:47;23.40;;;16.80;;
40781;SDS011;26493;51.938;7.626;2023-08-06T04:30:13;23.00;;;16.05;;
40781;SDS011;26493;51.938;7.626;2023-08-06T04:32:39;20.23;;;15.80;;
40781;SDS011;26493;51.938;7.626;2023-08-06T04:35:05;23.88;;;21.33;;
40781;SDS011;26493;51.938;7.626;2023-08-06T04:37:31;21.27;;;16.92;;
40781;SDS011;26493;51.938;7.626;2023-08-06T04:39:57;24.10;;;16.20;;
40781;SDS011;26493;51.938;7.626;2023-08-06T04:42:23;23.75;;;17.45;;
40781;SDS011;26493;51.938;7.626;2023-08-06T04:44:50;21.55;;;17.27;;
40781;SDS011;26493;51.938;7.626;2023-08-06T04:47:16;23.38;;;17.85;;
40781;SDS011;26493;51.938;7.626;2023-08-06T04:49:42;25.67;;;18.23;;
40781;SDS011;26493;51.938;7.626;2023-08-06T04:52:08;24.63;;;17.80;;
40781;SDS011;26493;51.938;7.626;2023-08-06T04:54:34;24.15;;;17.48;;
40781;SDS011;26493;51.938;7.626;2023-08-06T04:57:00;24.88;;;18.13;;
40781;SDS011;26493;51.938;7.626;2023-08-06T04:59:26;21.90;;;16.95;;
40781;SDS011;26493;51.938;7.626;2023-08-06T05:01:51;20.60;;;14.98;;
40781;SDS011;26493;51.938;7.626;2023-08-06T05:04:17;22.35;;;16.45;;
40781;SDS011;26493;51.938;7.626;2023-08-06T05:06:43;20.10;;;15.55;;
40781;SDS011;26493;51.938;7.626;2023-08-06T05:09:09;21.55;;;15.60;;
40781;SDS011;26493;51.938;7.626;2023-08-06T05:11:36;23.27;;;15.30;;
40781;SDS011;26493;51.938;7.626;2023-08-06T05:14:02;20.23;;;14.52;;
40781;SDS011;26493;51.938;7.626;2023-08-06T05:16:28;21.05;;;15.57;;
40781;SDS011;26493;51.938;7.626;2023-08-06T05:18:54;20.17;;;14.85;;
40781;SDS011;26493;51.938;7.626;2023-08-06T05:21:20;20.52;;;14.98;;
40781;SDS011;26493;51.938;7.626;2023-08-06T05:23:46;21.58;;;15.82;;
40781;SDS011;26493;51.938;7.626;2023-08-06T05:26:12;19.92;;;15.68;;
40781;SDS011;26493;51.938;7.626;2023-08-06T05:28:39;24.10;;;16.95;;
40781;SDS011;26493;51.938;7.626;2023-08-06T05:31:06;23.08;;;15.02;;
40781;SDS011;26493;51.938;7.626;2023-08-06T05:33:32;25.55;;;15.45;;
40781;SDS011;26493;51.938;7.626;2023-08-06T05:35:58;20.00;;;14.65;;
40781;SDS011;26493;51.938;7.626;2023-08-06T05:38:24;20.77;;;14.10;;
40781;SDS011;26493;51.938;7.626;2023-08-06T05:40:50;20.90;;;13.82;;
40781;SDS011;26493;51.938;7.626;2023-08-06T05:43:16;20.50;;;15.48;;
40781;SDS011;26493;51.938;7.626;2023-08-06T05:45:45;20.50;;;14.10;;
40781;SDS011;26493;51.938;7.626;2023-08-06T05:48:14;20.75;;;14.38;;
40781;SDS011;26493;51.938;7.626;2023-08-06T05:50:40;20.92;;;13.57;;
40781;SDS011;26493;51.938;7.626;2023-08-06T05:53:06;19.30;;;13.65;;
40781;SDS011;26493;51.938;7.626;2023-08-06T05:55:32;23.85;;;14.93;;
40781;SDS011;26493;51.938;7.626;2023-08-06T05:57:58;20.33;;;13.27;;
40781;SDS011;26493;51.938;7.626;2023-08-06T06:00:24;21.30;;;12.95;;
40781;SDS011;26493;51.938;7.626;2023-08-06T06:02:50;19.45;;;12.75;;
40781;SDS011;26493;51.938;7.626;2023-08-06T06:05:17;19.10;;;12.63;;
40781;SDS011;26493;51.938;7.626;2023-08-06T06:07:42;20.00;;;12.20;;
40781;SDS011;26493;51.938;7.626;2023-08-06T06:10:09;18.08;;;12.02;;
40781;SDS011;26493;51.938;7.626;2023-08-06T06:12:35;17.73;;;11.68;;
40781;SDS011;26493;51.938;7.626;2023-08-06T06:15:01;18.42;;;11.90;;
40781;SDS011;26493;51.938;7.626;2023-08-06T06:17:28;17.73;;;12.07;;
40781;SDS011;26493;51.938;7.626;2023-08-06T06:19:54;19.92;;;11.73;;
40781;SDS011;26493;51.938;7.626;2023-08-06T06:22:20;21.77;;;12.15;;
40781;SDS011;26493;51.938;7.626;2023-08-06T06:24:46;22.70;;;15.93;;
40781;SDS011;26493;51.938;7.626;2023-08-06T06:27:12;19.67;;;12.40;;
40781;SDS011;26493;51.938;7.626;2023-08-06T06:29:38;18.45;;;11.25;;
40781;SDS011;26493;51.938;7.626;2023-08-06T06:32:04;17.02;;;10.98;;
40781;SDS011;26493;51.938;7.626;2023-08-06T06:34:30;18.48;;;11.02;;
40781;SDS011;26493;51.938;7.626;2023-08-06T06:36:56;19.58;;;11.40;;
40781;SDS011;26493;51.938;7.626;2023-08-06T06:39:22;20.20;;;12.52;;
40781;SDS011;26493;51.938;7.626;2023-08-06T06:41:48;18.15;;;10.95;;
40781;SDS011;26493;51.938;7.626;2023-08-06T06:44:14;17.80;;;10.75;;
40781;SDS011;26493;51.938;7.626;2023-08-06T06:46:40;18.88;;;10.13;;
40781;SDS011;26493;51.938;7.626;2023-08-06T06:49:06;18.98;;;10.10;;
40781;SDS011;26493;51.938;7.626;2023-08-06T06:51:32;17.67;;;10.15;;
40781;SDS011;26493;51.938;7.626;2023-08-06T06:53:58;17.35;;;9.40;;
40781;SDS011;26493;51.938;7.626;2023-08-06T06:56:24;20.38;;;11.50;;
40781;SDS011;26493;51.938;7.626;2023-08-06T06:58:50;19.83;;;11.25;;
40781;SDS011;26493;51.938;7.626;2023-08-06T07:01:16;17.80;;;10.52;;
40781;SDS011;26493;51.938;7.626;2023-08-06T07:03:42;19.40;;;10.18;;
40781;SDS011;26493;51.938;7.626;2023-08-06T07:06:08;19.55;;;10.02;;
40781;SDS011;26493;51.938;7.626;2023-08-06T07:08:34;17.73;;;9.43;;
40781;SDS011;26493;51.938;7.626;2023-08-06T07:11:04;18.52;;;9.10;;
40781;SDS011;26493;51.938;7.626;2023-08-06T07:13:30;16.98;;;8.80;;
40781;SDS011;26493;51.938;7.626;2023-08-06T07:15:56;17.55;;;9.75;;
40781;SDS011;26493;51.938;7.626;2023-08-06T07:18:23;17.88;;;10.00;;
40781;SDS011;26493;51.938;7.626;2023-08-06T07:20:49;19.60;;;10.90;;
40781;SDS011;26493;51.938;7.626;2023-08-06T07:23:16;16.00;;;9.27;;
40781;SDS011;26493;51.938;7.626;2023-08-06T07:25:42;17.52;;;9.32;;
40781;SDS011;26493;51.938;7.626;2023-08-06T07:28:08;18.23;;;8.90;;
40781;SDS011;26493;51.938;7.626;2023-08-06T07:30:35;17.60;;;8.98;;
40781;SDS011;26493;51.938;7.626;2023-08-06T07:33:03;17.33;;;10.07;;
40781;SDS011;26493;51.938;7.626;2023-08-06T07:35:29;16.38;;;9.52;;
40781;SDS011;26493;51.938;7.626;2023-08-06T07:37:55;20.85;;;12.45;;
40781;SDS011;26493;51.938;7.626;2023-08-06T07:40:21;16.85;;;9.55;;
40781;SDS011;26493;51.938;7.626;2023-08-06T07:42:47;19.48;;;10.20;;
40781;SDS011;26493;51.938;7.626;2023-08-06T07:45:14;16.98;;;9.30;;
40781;SDS011;26493;51.938;7.626;2023-08-06T07:47:40;17.17;;;9.82;;
40781;SDS011;26493;51.938;7.626;2023-08-06T07:50:06;15.95;;;9.20;;
40781;SDS011;26493;51.938;7.626;2023-08-06T07:52:32;18.40;;;9.70;;
40781;SDS011;26493;51.938;7.626;2023-08-06T07:54:58;17.27;;;8.65;;
40781;SDS011;26493;51.938;7.626;2023-08-06T07:57:25;15.45;;;8.85;;
40781;SDS011;26493;51.938;7.626;2023-08-06T07:59:51;15.13;;;8.48;;
40781;SDS011;26493;51.938;7.626;2023-08-06T08:02:18;16.25;;;9.00;;
40781;SDS011;26493;51.938;7.626;2023-08-06T08:04:44;15.63;;;8.77;;
40781;SDS011;26493;51.938;7.626;2023-08-06T08:07:12;17.15;;;8.55;;
40781;SDS011;26493;51.938;7.626;2023-08-06T08:09:38;15.00;;;8.80;;
40781;SDS011;26493;51.938;7.626;2023-08-06T08:12:04;15.73;;;8.52;;
40781;SDS011;26493;51.938;7.626;2023-08-06T08:14:30;15.65;;;8.52;;
40781;SDS011;26493;51.938;7.626;2023-08-06T08:17:00;15.27;;;8.88;;
40781;SDS011;26493;51.938;7.626;2023-08-06T08:19:27;14.88;;;8.18;;
40781;SDS011;26493;51.938;7.626;2023-08-06T08:21:53;14.68;;;8.48;;
40781;SDS011;26493;51.938;7.626;2023-08-06T08:24:19;16.45;;;8.27;;
40781;SDS011;26493;51.938;7.626;2023-08-06T08:26:48;15.13;;;8.30;;
40781;SDS011;26493;51.938;7.626;2023-08-06T08:29:14;16.45;;;8.57;;
40781;SDS011;26493;51.938;7.626;2023-08-06T08:31:40;17.05;;;8.80;;
40781;SDS011;26493;51.938;7.626;2023-08-06T08:34:06;14.90;;;8.60;;
40781;SDS011;26493;51.938;7.626;2023-08-06T08:36:32;17.67;;;9.20;;
40781;SDS011;26493;51.938;7.626;2023-08-06T08:38:58;18.75;;;8.73;;
40781;SDS011;26493;51.938;7.626;2023-08-06T08:41:24;16.60;;;8.13;;
40781;SDS011;26493;51.938;7.626;2023-08-06T08:43:50;15.00;;;8.55;;
40781;SDS011;26493;51.938;7.626;2023-08-06T08:46:17;15.00;;;8.82;;
40781;SDS011;26493;51.938;7.626;2023-08-06T08:48:44;18.58;;;9.52;;
40781;SDS011;26493;51.938;7.626;2023-08-06T08:51:10;15.30;;;8.50;;
40781;SDS011;26493;51.938;7.626;2023-08-06T08:53:37;14.90;;;8.90;;
40781;SDS011;26493;51.938;7.626;2023-08-06T08:56:04;16.33;;;8.88;;
40781;SDS011;26493;51.938;7.626;2023-08-06T08:58:30;14.80;;;8.27;;
40781;SDS011;26493;51.938;7.626;2023-08-06T09:00:56;16.08;;;8.73;;
40781;SDS011;26493;51.938;7.626;2023-08-06T09:03:23;16.35;;;8.98;;
40781;SDS011;26493;51.938;7.626;2023-08-06T09:05:50;15.50;;;8.13;;
40781;SDS011;26493;51.938;7.626;2023-08-06T09:08:18;14.73;;;8.40;;
40781;SDS011;26493;51.938;7.626;2023-08-06T09:10:44;15.88;;;8.27;;
40781;SDS011;26493;51.938;7.626;2023-08-06T09:13:11;15.68;;;8.23;;
40781;SDS011;26493;51.938;7.626;2023-08-06T09:15:38;15.50;;;8.75;;
40781;SDS011;26493;51.938;7.626;2023-08-06T09:18:11;14.88;;;8.35;;
40781;SDS011;26493;51.938;7.626;2023-08-06T09:20:40;15.35;;;8.00;;
40781;SDS011;26493;51.938;7.626;2023-08-06T09:23:07;16.85;;;9.38;;
40781;SDS011;26493;51.938;7.626;2023-08-06T09:25:36;17.77;;;9.52;;
40781;SDS011;26493;51.938;7.626;2023-08-06T09:28:02;16.75;;;9.20;;
40781;SDS011;26493;51.938;7.626;2023-08-06T09:30:29;16.45;;;9.73;;
40781;SDS011;26493;51.938;7.626;2023-08-06T09:32:56;18.60;;;9.57;;
40781;SDS011;26493;51.938;7.626;2023-08-06T09:35:22;16.20;;;9.23;;
40781;SDS011;26493;51.938;7.626;2023-08-06T09:37:48;16.20;;;9.80;;
40781;SDS011;26493;51.938;7.626;2023-08-06T09:40:24;16.55;;;9.63;;
40781;SDS011;26493;51.938;7.626;2023-08-06T09:42:51;16.75;;;9.77;;
40781;SDS011;26493;51.938;7.626;2023-08-06T09:45:17;16.05;;;10.05;;
40781;SDS011;26493;51.938;7.626;2023-08-06T09:47:43;15.02;;;9.40;;
40781;SDS011;26493;51.938;7.626;2023-08-06T09:50:16;16.55;;;10.25;;
40781;SDS011;26493;51.938;7.626;2023-08-06T09:52:43;16.25;;;9.65;;
40781;SDS011;26493;51.938;7.626;2023-08-06T09:55:10;17.15;;;9.30;;
40781;SDS011;26493;51.938;7.626;2023-08-06T09:57:37;15.23;;;9.02;;
40781;SDS011;26493;51.938;7.626;2023-08-06T10:00:04;15.35;;;8.50;;
40781;SDS011;26493;51.938;7.626;2023-08-06T10:02:33;14.75;;;8.57;;
40781;SDS011;26493;51.938;7.626;2023-08-06T10:04:59;16.02;;;9.70;;
40781;SDS011;26493;51.938;7.626;2023-08-06T10:07:25;15.75;;;9.10;;
40781;SDS011;26493;51.938;7.626;2023-08-06T10:09:52;15.15;;;8.88;;
40781;SDS011;26493;51.938;7.626;2023-08-06T10:12:18;17.95;;;8.57;;
40781;SDS011;26493;51.938;7.626;2023-08-06T10:14:44;15.68;;;9.02;;
40781;SDS011;26493;51.938;7.626;2023-08-06T10:17:11;14.68;;;8.90;;
40781;SDS011;26493;51.938;7.626;2023-08-06T10:19:37;15.50;;;9.35;;
40781;SDS011;26493;51.938;7.626;2023-08-06T10:24:48;14.52;;;8.55;;
40781;SDS011;26493;51.938;7.626;2023-08-06T10:32:48;14.65;;;9.35;;
40781;SDS011;26493;51.938;7.626;2023-08-06T10:38:18;15.10;;;8.57;;
40781;SDS011;26493;51.938;7.626;2023-08-06T10:40:49;14.88;;;9.10;;
40781;SDS011;26493;51.938;7.626;2023-08-06T10:43:25;15.32;;;9.27;;
40781;SDS011;26493;51.938;7.626;2023-08-06T10:45:51;15.77;;;8.80;;
40781;SDS011;26493;51.938;7.626;2023-08-06T10:48:28;15.60;;;9.40;;
40781;SDS011;26493;51.938;7.626;2023-08-06T10:50:55;14.93;;;9.23;;
40781;SDS011;26493;51.938;7.626;2023-08-06T10:53:21;16.20;;;9.10;;
40781;SDS011;26493;51.938;7.626;2023-08-06T10:55:47;14.38;;;8.50;;
40781;SDS011;26493;51.938;7.626;2023-08-06T10:58:15;14.35;;;8.70;;
40781;SDS011;26493;51.938;7.626;2023-08-06T11:00:41;14.35;;;8.65;;
40781;SDS011;26493;51.938;7.626;2023-08-06T11:03:07;16.25;;;9.35;;
40781;SDS011;26493;51.938;7.626;2023-08-06T11:05:34;15.02;;;9.20;;
40781;SDS011;26493;51.938;7.626;2023-08-06T11:08:01;15.77;;;8.80;;
40781;SDS011;26493;51.938;7.626;2023-08-06T11:10:27;14.85;;;8.80;;
40781;SDS011;26493;51.938;7.626;2023-08-06T11:12:53;14.30;;;8.50;;
40781;SDS011;26493;51.938;7.626;2023-08-06T11:15:22;14.32;;;8.75;;
40781;SDS011;26493;51.938;7.626;2023-08-06T11:17:48;16.88;;;8.93;;
40781;SDS011;26493;51.938;7.626;2023-08-06T11:20:15;15.02;;;9.05;;
40781;SDS011;26493;51.938;7.626;2023-08-06T11:22:42;17.23;;;9.57;;
40781;SDS011;26493;51.938;7.626;2023-08-06T11:25:08;15.48;;;9.30;;
40781;SDS011;26493;51.938;7.626;2023-08-06T11:27:34;14.60;;;8.20;;
40781;SDS011;26493;51.938;7.626;2023-08-06T11:30:00;15.75;;;9.40;;
40781;SDS011;26493;51.938;7.626;2023-08-06T11:32:26;18.30;;;9.60;;
40781;SDS011;26493;51.938;7.626;2023-08-06T11:34:53;16.65;;;9.40;;
40781;SDS011;26493;51.938;7.626;2023-08-06T11:37:22;15.05;;;9.48;;
40781;SDS011;26493;51.938;7.626;2023-08-06T11:39:49;17.42;;;9.30;;
40781;SDS011;26493;51.938;7.626;2023-08-06T11:42:15;16.67;;;9.50;;
40781;SDS011;26493;51.938;7.626;2023-08-06T11:44:42;15.38;;;9.10;;
40781;SDS011;26493;51.938;7.626;2023-08-06T11:47:11;16.48;;;9.20;;
40781;SDS011;26493;51.938;7.626;2023-08-06T11:49:48;15.75;;;9.43;;
40781;SDS011;26493;51.938;7.626;2023-08-06T11:52:15;15.10;;;9.55;;
40781;SDS011;26493;51.938;7.626;2023-08-06T11:54:44;15.70;;;9.95;;
40781;SDS011;26493;51.938;7.626;2023-08-06T11:57:10;16.00;;;10.45;;
40781;SDS011;26493;51.938;7.626;2023-08-06T11:59:37;14.80;;;9.90;;
40781;SDS011;26493;51.938;7.626;2023-08-06T12:02:04;15.30;;;10.30;;
40781;SDS011;26493;51.938;7.626;2023-08-06T12:04:30;15.18;;;10.48;;
40781;SDS011;26493;51.938;7.626;2023-08-06T12:07:04;15.10;;;10.18;;
40781;SDS011;26493;51.938;7.626;2023-08-06T12:09:31;17.02;;;10.32;;
40781;SDS011;26493;51.938;7.626;2023-08-06T12:11:57;16.30;;;10.93;;
40781;SDS011;26493;51.938;7.626;2023-08-06T12:14:23;15.85;;;11.15;;
40781;SDS011;26493;51.938;7.626;2023-08-06T12:16:49;15.80;;;11.05;;
40781;SDS011;26493;51.938;7.626;2023-08-06T12:19:15;15.65;;;11.00;;
40781;SDS011;26493;51.938;7.626;2023-08-06T12:21:41;16.33;;;11.43;;
40781;SDS011;26493;51.938;7.626;2023-08-06T12:24:07;16.13;;;10.73;;
40781;SDS011;26493;51.938;7.626;2023-08-06T12:26:34;16.47;;;11.37;;
40781;SDS011;26493;51.938;7.626;2023-08-06T12:29:00;17.70;;;11.27;;
40781;SDS011;26493;51.938;7.626;2023-08-06T12:31:26;15.98;;;11.48;;
40781;SDS011;26493;51.938;7.626;2023-08-06T12:33:52;17.70;;;11.20;;
40781;SDS011;26493;51.938;7.626;2023-08-06T12:36:18;16.25;;;11.50;;
40781;SDS011;26493;51.938;7.626;2023-08-06T12:38:44;18.42;;;11.32;;
40781;SDS011;26493;51.938;7.626;2023-08-06T12:41:10;17.15;;;11.02;;
40781;SDS011;26493;51.938;7.626;2023-08-06T12:43:36;16.00;;;10.77;;
40781;SDS011;26493;51.938;7.626;2023-08-06T12:46:02;16.27;;;10.32;;
40781;SDS011;26493;51.938;7.626;2023-08-06T12:48:29;15.65;;;10.15;;
40781;SDS011;26493;51.938;7.626;2023-08-06T12:50:55;16.20;;;10.18;;
40781;SDS011;26493;51.938;7.626;2023-08-06T12:53:21;16.25;;;10.18;;
40781;SDS011;26493;51.938;7.626;2023-08-06T12:55:48;15.35;;;9.57;;
40781;SDS011;26493;51.938;7.626;2023-08-06T12:58:14;15.93;;;9.80;;
40781;SDS011;26493;51.938;7.626;2023-08-06T13:00:40;16.30;;;10.20;;
40781;SDS011;26493;51.938;7.626;2023-08-06T13:03:06;15.38;;;10.00;;
40781;SDS011;26493;51.938;7.626;2023-08-06T13:05:32;16.25;;;9.88;;
40781;SDS011;26493;51.938;7.626;2023-08-06T13:07:58;17.30;;;10.77;;
40781;SDS011;26493;51.938;7.626;2023-08-06T13:10:24;18.35;;;10.20;;
40781;SDS011;26493;51.938;7.626;2023-08-06T13:12:52;14.77;;;9.45;;
40781;SDS011;26493;51.938;7.626;2023-08-06T13:15:18;15.50;;;9.88;;
40781;SDS011;26493;51.938;7.626;2023-08-06T13:17:46;14.80;;;9.48;;
40781;SDS011;26493;51.938;7.626;2023-08-06T13:20:12;15.40;;;10.10;;
40781;SDS011;26493;51.938;7.626;2023-08-06T13:22:38;18.90;;;9.77;;
40781;SDS011;26493;51.938;7.626;2023-08-06T13:25:04;14.95;;;9.48;;
40781;SDS011;26493;51.938;7.626;2023-08-06T13:27:30;17.33;;;9.60;;
40781;SDS011;26493;51.938;7.626;2023-08-06T13:29:56;15.40;;;9.65;;
40781;SDS011;26493;51.938;7.626;2023-08-06T13:32:22;16.63;;;9.85;;
40781;SDS011;26493;51.938;7.626;2023-08-06T13:34:48;17.38;;;10.38;;
40781;SDS011;26493;51.938;7.626;2023-08-06T13:37:14;16.63;;;10.18;;
40781;SDS011;26493;51.938;7.626;2023-08-06T13:39:40;16.45;;;9.90;;
40781;SDS011;26493;51.938;7.626;2023-08-06T13:42:06;18.83;;;11.25;;
40781;SDS011;26493;51.938;7.626;2023-08-06T13:44:32;17.98;;;11.13;;
40781;SDS011;26493;51.938;7.626;2023-08-06T13:49:26;17.75;;;11.13;;
40781;SDS011;26493;51.938;7.626;2023-08-06T13:51:52;16.83;;;9.70;;
40781;SDS011;26493;51.938;7.626;2023-08-06T13:54:18;15.52;;;9.77;;
40781;SDS011;26493;51.938;7.626;2023-08-06T13:56:46;15.43;;;9.60;;
40781;SDS011;26493;51.938;7.626;2023-08-06T13:59:12;16.88;;;9.68;;
40781;SDS011;26493;51.938;7.626;2023-08-06T14:01:39;15.00;;;9.07;;
40781;SDS011;26493;51.938;7.626;2023-08-06T14:04:05;15.75;;;9.23;;
40781;SDS011;26493;51.938;7.626;2023-08-06T14:06:31;15.93;;;9.55;;
40781;SDS011;26493;51.938;7.626;2023-08-06T14:08:57;15.88;;;9.32;;
40781;SDS011;26493;51.938;7.626;2023-08-06T14:11:23;15.73;;;9.40;;
40781;SDS011;26493;51.938;7.626;2023-08-06T14:13:49;17.13;;;9.20;;
40781;SDS011;26493;51.938;7.626;2023-08-06T14:16:15;15.13;;;9.18;;
40781;SDS011;26493;51.938;7.626;2023-08-06T14:18:41;15.10;;;9.52;;
40781;SDS011;26493;51.938;7.626;2023-08-06T14:21:07;15.73;;;9.40;;
40781;SDS011;26493;51.938;7.626;2023-08-06T14:23:33;17.38;;;9.60;;
40781;SDS011;26493;51.938;7.626;2023-08-06T14:25:59;18.08;;;9.88;;
40781;SDS011;26493;51.938;7.626;2023-08-06T14:28:25;19.45;;;15.85;;
40781;SDS011;26493;51.938;7.626;2023-08-06T14:30:51;29.73;;;26.95;;
40781;SDS011;26493;51.938;7.626;2023-08-06T14:33:17;34.67;;;31.42;;
40781;SDS011;26493;51.938;7.626;2023-08-06T14:35:43;38.05;;;35.03;;
40781;SDS011;26493;51.938;7.626;2023-08-06T14:38:09;44.20;;;39.88;;
40781;SDS011;26493;51.938;7.626;2023-08-06T14:40:35;6.80;;;4.10;;